Nisland, South Dakota
Current Conditions -  °F | °C
As of 2:15 PM on Sunday 23 Nov 2014 (Local Time) from KSPF Reporting Station
Light Snow Light Snow  
Wind Chill: 22°   Ceiling: 3500
Heat Index: 34°   Visibility: 10mi
Dew Point: 23°   Wind: 21mph
Humidity: 65%   Direction: 300°WNW
Pressure: 29.74"   Gusts: 35mph
Location:  44.67°N, 103.55°W
Report Text: KSPF 232115Z AUTO 30018G30KT 10SM -SN BKN035 01/M05 A2974 RMK AO2
Loading
Personal Weather Stations






























Interactive Weather Map New forecast layout! Learn more

10-Day Weather Forecast

Advertisements
Track Severe Weather on mobile